Terminal Aerodrome Forecast
Issued by NWS

Home | Current Version | Previous Version | Text Only | Print | Product List | Glossary On
Versions: 1 2 3 4 5 6 7 8 9 10 11 12 13 14 15 16 17 18 19 20 21 22 23 24 25 26 27 28 29
000
FTUS45 KSLC 020538
TAF36U
TAF
K36U 020538Z 0206/0306 VRB04KT P6SM BKN200
     FM022000 23008KT P6SM BKN150
     FM030300 12010G16KT P6SM VCSH BKN090 BKN130=

USA.gov is the U.S. government's official web portal to all federal, state and local government web resources and services.